sensor_id;sensor_type;location;lat;lon;timestamp;pressure;altitude;pressure_sealevel;temperature;humidity
45813;BME280;31519;45.408;10.962;2023-04-07T00:02:09;100800.41;;;13.56;36.77
45813;BME280;31519;45.408;10.962;2023-04-07T00:04:37;100800.69;;;13.29;37.33
45813;BME280;31519;45.408;10.962;2023-04-07T00:07:05;100801.97;;;13.14;37.83
45813;BME280;31519;45.408;10.962;2023-04-07T00:09:33;100805.44;;;13.15;37.93
45813;BME280;31519;45.408;10.962;2023-04-07T00:12:01;100791.72;;;13.25;37.75
45813;BME280;31519;45.408;10.962;2023-04-07T00:14:28;100803.53;;;13.15;37.69
45813;BME280;31519;45.408;10.962;2023-04-07T00:16:56;100796.47;;;13.28;37.60
45813;BME280;31519;45.408;10.962;2023-04-07T00:19:24;100796.63;;;13.14;37.91
45813;BME280;31519;45.408;10.962;2023-04-07T00:21:52;100797.53;;;13.10;38.10
45813;BME280;31519;45.408;10.962;2023-04-07T00:24:20;100788.25;;;13.16;38.14
45813;BME280;31519;45.408;10.962;2023-04-07T00:27:01;100791.56;;;13.21;38.10
45813;BME280;31519;45.408;10.962;2023-04-07T00:29:28;100787.81;;;13.40;37.82
45813;BME280;31519;45.408;10.962;2023-04-07T00:31:56;100780.09;;;13.21;38.22
45813;BME280;31519;45.408;10.962;2023-04-07T00:34:24;100784.50;;;13.25;38.09
45813;BME280;31519;45.408;10.962;2023-04-07T00:36:52;100787.19;;;13.43;37.88
45813;BME280;31519;45.408;10.962;2023-04-07T00:39:20;100783.38;;;13.09;38.60
45813;BME280;31519;45.408;10.962;2023-04-07T00:41:48;100789.38;;;13.23;38.60
45813;BME280;31519;45.408;10.962;2023-04-07T00:44:15;100786.22;;;13.13;38.60
45813;BME280;31519;45.408;10.962;2023-04-07T00:46:43;100782.88;;;12.99;38.74
45813;BME280;31519;45.408;10.962;2023-04-07T00:49:14;100785.25;;;13.00;38.68
45813;BME280;31519;45.408;10.962;2023-04-07T00:51:44;100782.47;;;13.14;38.88
45813;BME280;31519;45.408;10.962;2023-04-07T00:54:13;100784.34;;;13.39;38.56
45813;BME280;31519;45.408;10.962;2023-04-07T00:56:41;100786.22;;;13.13;38.91
45813;BME280;31519;45.408;10.962;2023-04-07T00:59:10;100787.75;;;12.97;39.39
45813;BME280;31519;45.408;10.962;2023-04-07T01:04:10;100774.28;;;13.45;38.92
45813;BME280;31519;45.408;10.962;2023-04-07T01:06:43;100777.81;;;12.97;39.42
45813;BME280;31519;45.408;10.962;2023-04-07T01:09:18;100768.41;;;13.00;39.53
45813;BME280;31519;45.408;10.962;2023-04-07T01:11:52;100765.47;;;13.18;39.36
45813;BME280;31519;45.408;10.962;2023-04-07T01:14:24;100774.91;;;13.42;38.78
45813;BME280;31519;45.408;10.962;2023-04-07T01:17:03;100766.97;;;13.02;39.44
45813;BME280;31519;45.408;10.962;2023-04-07T01:19:38;100760.69;;;13.07;39.48
45813;BME280;31519;45.408;10.962;2023-04-07T01:22:25;100763.72;;;13.14;39.40
45813;BME280;31519;45.408;10.962;2023-04-07T01:29:53;100768.56;;;12.95;39.95
45813;BME280;31519;45.408;10.962;2023-04-07T01:32:22;100769.88;;;13.23;39.40
45813;BME280;31519;45.408;10.962;2023-04-07T01:34:53;100762.78;;;13.18;39.37
45813;BME280;31519;45.408;10.962;2023-04-07T01:37:22;100764.97;;;13.25;39.61
45813;BME280;31519;45.408;10.962;2023-04-07T01:39:53;100768.84;;;12.93;40.15
45813;BME280;31519;45.408;10.962;2023-04-07T01:42:21;100769.34;;;12.86;40.51
45813;BME280;31519;45.408;10.962;2023-04-07T01:44:48;100768.75;;;13.15;39.83
45813;BME280;31519;45.408;10.962;2023-04-07T01:47:17;100765.16;;;13.28;39.88
45813;BME280;31519;45.408;10.962;2023-04-07T01:49:45;100764.81;;;13.30;39.76
45813;BME280;31519;45.408;10.962;2023-04-07T01:52:14;100765.31;;;13.41;39.34
45813;BME280;31519;45.408;10.962;2023-04-07T01:54:41;100761.38;;;13.21;39.76
45813;BME280;31519;45.408;10.962;2023-04-07T01:57:10;100762.91;;;13.05;40.28
45813;BME280;31519;45.408;10.962;2023-04-07T01:59:37;100761.66;;;13.54;39.03
45813;BME280;31519;45.408;10.962;2023-04-07T02:02:05;100759.63;;;13.16;39.28
45813;BME280;31519;45.408;10.962;2023-04-07T02:04:43;100756.19;;;13.33;38.95
45813;BME280;31519;45.408;10.962;2023-04-07T02:07:19;100764.34;;;13.54;38.95
45813;BME280;31519;45.408;10.962;2023-04-07T02:09:50;100756.66;;;13.18;39.53
45813;BME280;31519;45.408;10.962;2023-04-07T02:12:24;100755.53;;;13.10;39.97
45813;BME280;31519;45.408;10.962;2023-04-07T02:15:02;100749.56;;;13.56;39.23
45813;BME280;31519;45.408;10.962;2023-04-07T02:17:32;100759.13;;;13.57;38.80
45813;BME280;31519;45.408;10.962;2023-04-07T02:20:01;100761.50;;;13.67;38.30
45813;BME280;31519;45.408;10.962;2023-04-07T02:22:30;100754.44;;;13.54;38.25
45813;BME280;31519;45.408;10.962;2023-04-07T02:24:58;100747.31;;;13.67;37.38
45813;BME280;31519;45.408;10.962;2023-04-07T02:27:26;100748.31;;;13.37;37.53
45813;BME280;31519;45.408;10.962;2023-04-07T02:29:54;100743.91;;;13.15;38.07
45813;BME280;31519;45.408;10.962;2023-04-07T02:32:23;100745.31;;;13.21;38.30
45813;BME280;31519;45.408;10.962;2023-04-07T02:34:51;100749.09;;;13.28;38.32
45813;BME280;31519;45.408;10.962;2023-04-07T02:37:19;100741.66;;;13.08;38.70
45813;BME280;31519;45.408;10.962;2023-04-07T02:39:46;100752.72;;;13.24;38.04
45813;BME280;31519;45.408;10.962;2023-04-07T02:42:14;100748.78;;;13.21;37.79
45813;BME280;31519;45.408;10.962;2023-04-07T02:44:41;100747.16;;;12.95;38.34
45813;BME280;31519;45.408;10.962;2023-04-07T02:47:09;100752.38;;;13.00;38.45
45813;BME280;31519;45.408;10.962;2023-04-07T02:49:37;100756.47;;;13.06;38.66
45813;BME280;31519;45.408;10.962;2023-04-07T02:52:05;100748.75;;;13.04;38.51
45813;BME280;31519;45.408;10.962;2023-04-07T02:54:33;100747.00;;;12.91;38.81
45813;BME280;31519;45.408;10.962;2023-04-07T02:57:01;100758.34;;;13.05;38.79
45813;BME280;31519;45.408;10.962;2023-04-07T02:59:28;100758.81;;;12.99;38.51
45813;BME280;31519;45.408;10.962;2023-04-07T03:01:56;100755.97;;;12.95;38.78
45813;BME280;31519;45.408;10.962;2023-04-07T03:04:24;100752.50;;;12.86;39.61
45813;BME280;31519;45.408;10.962;2023-04-07T03:06:53;100749.03;;;12.77;39.84
45813;BME280;31519;45.408;10.962;2023-04-07T03:09:20;100748.25;;;12.76;40.39
45813;BME280;31519;45.408;10.962;2023-04-07T03:11:48;100749.44;;;12.53;41.19
45813;BME280;31519;45.408;10.962;2023-04-07T03:14:16;100740.19;;;12.59;41.41
45813;BME280;31519;45.408;10.962;2023-04-07T03:16:47;100744.09;;;12.53;41.33
45813;BME280;31519;45.408;10.962;2023-04-07T03:19:15;100746.66;;;12.67;41.07
45813;BME280;31519;45.408;10.962;2023-04-07T03:21:46;100744.94;;;12.79;41.23
45813;BME280;31519;45.408;10.962;2023-04-07T03:24:14;100749.31;;;12.58;41.55
45813;BME280;31519;45.408;10.962;2023-04-07T03:26:44;100752.13;;;12.53;41.39
45813;BME280;31519;45.408;10.962;2023-04-07T03:29:25;100756.25;;;12.28;42.28
45813;BME280;31519;45.408;10.962;2023-04-07T03:31:53;100763.53;;;12.36;42.67
45813;BME280;31519;45.408;10.962;2023-04-07T03:34:23;100754.34;;;12.20;42.66
45813;BME280;31519;45.408;10.962;2023-04-07T03:36:51;100750.00;;;12.33;42.59
45813;BME280;31519;45.408;10.962;2023-04-07T03:39:20;100746.38;;;12.29;42.81
45813;BME280;31519;45.408;10.962;2023-04-07T03:41:51;100745.53;;;12.51;41.65
45813;BME280;31519;45.408;10.962;2023-04-07T03:44:18;100736.91;;;12.71;40.97
45813;BME280;31519;45.408;10.962;2023-04-07T03:46:46;100742.22;;;12.54;41.20
45813;BME280;31519;45.408;10.962;2023-04-07T03:49:19;100738.72;;;12.44;41.37
45813;BME280;31519;45.408;10.962;2023-04-07T03:51:48;100739.66;;;12.40;41.20
45813;BME280;31519;45.408;10.962;2023-04-07T03:54:18;100744.63;;;12.24;41.31
45813;BME280;31519;45.408;10.962;2023-04-07T03:56:46;100741.31;;;12.19;41.14
45813;BME280;31519;45.408;10.962;2023-04-07T03:59:17;100747.16;;;12.29;41.29
45813;BME280;31519;45.408;10.962;2023-04-07T04:02:12;100742.84;;;12.11;41.67
45813;BME280;31519;45.408;10.962;2023-04-07T04:04:39;100737.06;;;12.18;41.74
45813;BME280;31519;45.408;10.962;2023-04-07T04:07:09;100736.22;;;12.00;42.11
45813;BME280;31519;45.408;10.962;2023-04-07T04:09:41;100738.22;;;12.34;41.64
45813;BME280;31519;45.408;10.962;2023-04-07T04:12:11;100738.50;;;12.24;41.49
45813;BME280;31519;45.408;10.962;2023-04-07T04:14:46;100735.19;;;12.18;41.78
45813;BME280;31519;45.408;10.962;2023-04-07T04:17:15;100730.59;;;12.10;42.19
45813;BME280;31519;45.408;10.962;2023-04-07T04:19:45;100727.53;;;11.94;42.75
45813;BME280;31519;45.408;10.962;2023-04-07T04:22:36;100745.88;;;11.87;42.66
45813;BME280;31519;45.408;10.962;2023-04-07T04:25:04;100735.94;;;11.79;43.06
45813;BME280;31519;45.408;10.962;2023-04-07T04:27:32;100739.16;;;11.90;42.63
45813;BME280;31519;45.408;10.962;2023-04-07T04:30:08;100738.59;;;12.10;42.51
45813;BME280;31519;45.408;10.962;2023-04-07T04:32:46;100739.34;;;12.02;42.58
45813;BME280;31519;45.408;10.962;2023-04-07T04:35:15;100740.00;;;11.77;43.33
45813;BME280;31519;45.408;10.962;2023-04-07T04:37:54;100739.44;;;11.88;43.14
45813;BME280;31519;45.408;10.962;2023-04-07T04:40:21;100740.00;;;12.08;43.12
45813;BME280;31519;45.408;10.962;2023-04-07T04:42:51;100745.09;;;11.87;43.18
45813;BME280;31519;45.408;10.962;2023-04-07T04:45:20;100743.16;;;11.79;43.62
45813;BME280;31519;45.408;10.962;2023-04-07T04:47:49;100742.47;;;11.73;43.70
45813;BME280;31519;45.408;10.962;2023-04-07T04:50:17;100742.19;;;11.75;43.56
45813;BME280;31519;45.408;10.962;2023-04-07T04:52:46;100731.38;;;11.57;44.04
45813;BME280;31519;45.408;10.962;2023-04-07T04:55:21;100744.25;;;11.78;43.52
45813;BME280;31519;45.408;10.962;2023-04-07T04:57:50;100746.72;;;11.52;44.24
45813;BME280;31519;45.408;10.962;2023-04-07T05:00:25;100749.44;;;11.61;44.30
45813;BME280;31519;45.408;10.962;2023-04-07T05:02:59;100753.28;;;11.90;43.65
45813;BME280;31519;45.408;10.962;2023-04-07T05:05:27;100750.91;;;11.89;43.47
45813;BME280;31519;45.408;10.962;2023-04-07T05:07:56;100756.94;;;11.72;44.13
45813;BME280;31519;45.408;10.962;2023-04-07T05:10:29;100750.66;;;11.99;43.52
45813;BME280;31519;45.408;10.962;2023-04-07T05:12:57;100754.91;;;11.55;44.60
45813;BME280;31519;45.408;10.962;2023-04-07T05:15:24;100750.91;;;11.44;44.90
45813;BME280;31519;45.408;10.962;2023-04-07T05:17:53;100745.28;;;11.68;45.17
45813;BME280;31519;45.408;10.962;2023-04-07T05:20:25;100744.22;;;11.33;45.74
45813;BME280;31519;45.408;10.962;2023-04-07T05:22:54;100744.47;;;11.23;46.50
45813;BME280;31519;45.408;10.962;2023-04-07T05:25:28;100745.09;;;11.42;45.79
45813;BME280;31519;45.408;10.962;2023-04-07T05:27:59;100745.25;;;11.46;45.74
45813;BME280;31519;45.408;10.962;2023-04-07T05:30:26;100742.28;;;11.70;45.21
45813;BME280;31519;45.408;10.962;2023-04-07T05:32:55;100742.56;;;11.82;44.81
45813;BME280;31519;45.408;10.962;2023-04-07T05:35:35;100739.84;;;11.60;44.77
45813;BME280;31519;45.408;10.962;2023-04-07T05:38:03;100745.88;;;11.65;45.02
45813;BME280;31519;45.408;10.962;2023-04-07T05:40:31;100739.81;;;11.73;45.11
45813;BME280;31519;45.408;10.962;2023-04-07T05:43:03;100736.81;;;11.97;44.68
45813;BME280;31519;45.408;10.962;2023-04-07T05:45:32;100735.06;;;11.92;44.44
45813;BME280;31519;45.408;10.962;2023-04-07T05:48:01;100729.47;;;12.03;44.02
45813;BME280;31519;45.408;10.962;2023-04-07T05:50:39;100730.34;;;12.29;43.87
45813;BME280;31519;45.408;10.962;2023-04-07T05:53:11;100726.31;;;12.49;43.13
45813;BME280;31519;45.408;10.962;2023-04-07T05:55:43;100727.94;;;12.58;43.06
45813;BME280;31519;45.408;10.962;2023-04-07T05:58:39;100721.03;;;12.74;42.69
45813;BME280;31519;45.408;10.962;2023-04-07T06:01:08;100717.41;;;12.79;42.43
45813;BME280;31519;45.408;10.962;2023-04-07T06:03:36;100722.75;;;12.79;42.40
45813;BME280;31519;45.408;10.962;2023-04-07T06:06:17;100720.44;;;13.03;41.71
45813;BME280;31519;45.408;10.962;2023-04-07T06:08:46;100725.00;;;13.03;41.47
45813;BME280;31519;45.408;10.962;2023-04-07T06:11:13;100722.50;;;13.32;40.87
45813;BME280;31519;45.408;10.962;2023-04-07T06:13:42;100725.63;;;13.51;40.28
45813;BME280;31519;45.408;10.962;2023-04-07T06:16:10;100724.19;;;13.54;40.47
45813;BME280;31519;45.408;10.962;2023-04-07T06:18:37;100716.94;;;13.63;40.71
45813;BME280;31519;45.408;10.962;2023-04-07T06:21:06;100716.72;;;13.85;40.09
45813;BME280;31519;45.408;10.962;2023-04-07T06:23:34;100720.66;;;13.88;39.28
45813;BME280;31519;45.408;10.962;2023-04-07T06:26:07;100712.38;;;14.10;38.36
45813;BME280;31519;45.408;10.962;2023-04-07T06:28:37;100708.31;;;14.42;37.71
45813;BME280;31519;45.408;10.962;2023-04-07T06:31:05;100714.13;;;14.35;37.84
45813;BME280;31519;45.408;10.962;2023-04-07T06:33:35;100711.00;;;14.62;36.73
45813;BME280;31519;45.408;10.962;2023-04-07T06:36:03;100711.09;;;14.75;36.58
45813;BME280;31519;45.408;10.962;2023-04-07T06:38:31;100711.88;;;14.96;35.88
45813;BME280;31519;45.408;10.962;2023-04-07T06:40:58;100719.06;;;15.25;35.31
45813;BME280;31519;45.408;10.962;2023-04-07T06:43:26;100720.09;;;15.32;35.64
45813;BME280;31519;45.408;10.962;2023-04-07T06:46:00;100718.31;;;15.57;34.47
45813;BME280;31519;45.408;10.962;2023-04-07T06:48:28;100715.75;;;15.61;34.27
45813;BME280;31519;45.408;10.962;2023-04-07T06:50:55;100719.00;;;15.33;33.79
45813;BME280;31519;45.408;10.962;2023-04-07T06:53:23;100723.72;;;15.69;33.44
45813;BME280;31519;45.408;10.962;2023-04-07T06:55:50;100726.34;;;16.02;32.13
45813;BME280;31519;45.408;10.962;2023-04-07T06:58:18;100721.97;;;16.10;31.63
45813;BME280;31519;45.408;10.962;2023-04-07T07:00:46;100721.56;;;16.44;31.28
45813;BME280;31519;45.408;10.962;2023-04-07T07:03:15;100716.50;;;16.30;30.48
45813;BME280;31519;45.408;10.962;2023-04-07T07:05:43;100711.22;;;16.46;30.28
45813;BME280;31519;45.408;10.962;2023-04-07T07:08:10;100722.31;;;16.57;30.25
45813;BME280;31519;45.408;10.962;2023-04-07T07:10:38;100726.25;;;16.35;30.42
45813;BME280;31519;45.408;10.962;2023-04-07T07:13:06;100727.13;;;16.51;30.39
45813;BME280;31519;45.408;10.962;2023-04-07T07:15:34;100728.38;;;16.29;30.17
45813;BME280;31519;45.408;10.962;2023-04-07T07:18:02;100722.88;;;16.38;30.47
45813;BME280;31519;45.408;10.962;2023-04-07T07:20:29;100724.09;;;16.89;29.92
45813;BME280;31519;45.408;10.962;2023-04-07T07:22:57;100722.97;;;16.90;29.77
45813;BME280;31519;45.408;10.962;2023-04-07T07:25:26;100718.75;;;16.65;29.81
45813;BME280;31519;45.408;10.962;2023-04-07T07:27:54;100725.47;;;16.34;30.44
45813;BME280;31519;45.408;10.962;2023-04-07T07:30:22;100720.75;;;16.07;30.81
45813;BME280;31519;45.408;10.962;2023-04-07T07:32:51;100725.22;;;16.27;30.75
45813;BME280;31519;45.408;10.962;2023-04-07T07:35:20;100717.13;;;16.88;30.21
45813;BME280;31519;45.408;10.962;2023-04-07T07:37:48;100718.16;;;16.83;29.83
45813;BME280;31519;45.408;10.962;2023-04-07T07:40:16;100709.31;;;17.11;29.87
45813;BME280;31519;45.408;10.962;2023-04-07T07:42:45;100714.59;;;17.35;29.90
45813;BME280;31519;45.408;10.962;2023-04-07T07:45:12;100719.50;;;17.17;29.35
45813;BME280;31519;45.408;10.962;2023-04-07T07:47:40;100709.06;;;17.16;29.57
45813;BME280;31519;45.408;10.962;2023-04-07T07:50:08;100709.16;;;17.91;29.27
45813;BME280;31519;45.408;10.962;2023-04-07T07:52:36;100718.38;;;16.91;29.54
45813;BME280;31519;45.408;10.962;2023-04-07T07:55:04;100713.34;;;17.45;29.17
45813;BME280;31519;45.408;10.962;2023-04-07T07:57:31;100715.81;;;17.38;29.15
45813;BME280;31519;45.408;10.962;2023-04-07T07:59:59;100724.97;;;16.93;29.79
45813;BME280;31519;45.408;10.962;2023-04-07T08:02:27;100725.97;;;17.28;29.34
45813;BME280;31519;45.408;10.962;2023-04-07T08:04:58;100729.19;;;17.06;30.13
45813;BME280;31519;45.408;10.962;2023-04-07T08:07:26;100725.91;;;17.84;29.69
45813;BME280;31519;45.408;10.962;2023-04-07T08:09:53;100710.44;;;18.12;29.59
45813;BME280;31519;45.408;10.962;2023-04-07T08:12:21;100718.81;;;17.48;29.89
45813;BME280;31519;45.408;10.962;2023-04-07T08:14:49;100718.97;;;17.83;29.49
45813;BME280;31519;45.408;10.962;2023-04-07T08:17:17;100717.91;;;17.88;29.59
45813;BME280;31519;45.408;10.962;2023-04-07T08:19:44;100720.41;;;17.37;29.88
45813;BME280;31519;45.408;10.962;2023-04-07T08:22:12;100724.41;;;17.27;29.53
45813;BME280;31519;45.408;10.962;2023-04-07T08:24:40;100732.56;;;17.03;30.31
45813;BME280;31519;45.408;10.962;2023-04-07T08:27:08;100735.75;;;16.81;29.68
45813;BME280;31519;45.408;10.962;2023-04-07T08:29:36;100726.25;;;17.67;29.00
45813;BME280;31519;45.408;10.962;2023-04-07T08:32:04;100734.81;;;17.29;30.22
45813;BME280;31519;45.408;10.962;2023-04-07T08:34:31;100736.31;;;17.14;30.92
45813;BME280;31519;45.408;10.962;2023-04-07T08:36:59;100739.41;;;17.01;31.13
45813;BME280;31519;45.408;10.962;2023-04-07T08:39:27;100734.09;;;16.76;31.54
45813;BME280;31519;45.408;10.962;2023-04-07T08:41:55;100733.75;;;16.66;31.38
45813;BME280;31519;45.408;10.962;2023-04-07T08:44:24;100742.69;;;16.94;31.31
45813;BME280;31519;45.408;10.962;2023-04-07T08:46:54;100732.50;;;17.27;30.87
45813;BME280;31519;45.408;10.962;2023-04-07T08:49:24;100733.16;;;18.11;30.01
45813;BME280;31519;45.408;10.962;2023-04-07T08:51:56;100727.22;;;17.19;30.21
45813;BME280;31519;45.408;10.962;2023-04-07T08:54:25;100721.41;;;17.45;29.77
45813;BME280;31519;45.408;10.962;2023-04-07T08:56:53;100715.25;;;18.03;28.71
45813;BME280;31519;45.408;10.962;2023-04-07T08:59:21;100731.13;;;18.40;28.38
45813;BME280;31519;45.408;10.962;2023-04-07T09:01:53;100720.41;;;18.59;28.57
45813;BME280;31519;45.408;10.962;2023-04-07T09:04:21;100728.19;;;17.82;29.32
45813;BME280;31519;45.408;10.962;2023-04-07T09:06:51;100720.66;;;17.60;29.63
45813;BME280;31519;45.408;10.962;2023-04-07T09:09:19;100717.03;;;18.15;29.15
45813;BME280;31519;45.408;10.962;2023-04-07T09:11:47;100714.41;;;18.50;28.38
45813;BME280;31519;45.408;10.962;2023-04-07T09:14:14;100713.91;;;18.29;29.38
45813;BME280;31519;45.408;10.962;2023-04-07T09:16:43;100717.16;;;18.19;29.35
45813;BME280;31519;45.408;10.962;2023-04-07T09:19:10;100710.63;;;18.04;30.34
45813;BME280;31519;45.408;10.962;2023-04-07T09:22:12;100693.75;;;18.23;30.09
45813;BME280;31519;45.408;10.962;2023-04-07T09:24:32;100696.88;;;18.25;29.92
45813;BME280;31519;45.408;10.962;2023-04-07T09:27:10;100691.53;;;17.50;30.64
45813;BME280;31519;45.408;10.962;2023-04-07T09:29:42;100695.44;;;18.62;29.14
45813;BME280;31519;45.408;10.962;2023-04-07T09:32:11;100690.34;;;19.15;28.31
45813;BME280;31519;45.408;10.962;2023-04-07T09:34:40;100687.25;;;19.77;27.82
45813;BME280;31519;45.408;10.962;2023-04-07T09:37:08;100683.63;;;20.15;26.99
45813;BME280;31519;45.408;10.962;2023-04-07T09:39:48;100685.16;;;20.39;27.25
45813;BME280;31519;45.408;10.962;2023-04-07T09:42:17;100682.44;;;19.90;27.45
45813;BME280;31519;45.408;10.962;2023-04-07T09:44:44;100682.09;;;20.18;28.06
45813;BME280;31519;45.408;10.962;2023-04-07T09:47:12;100684.19;;;20.28;28.17
45813;BME280;31519;45.408;10.962;2023-04-07T09:49:47;100684.66;;;20.30;27.58
45813;BME280;31519;45.408;10.962;2023-04-07T09:52:16;100680.88;;;19.66;27.58
45813;BME280;31519;45.408;10.962;2023-04-07T09:54:46;100685.66;;;19.99;26.74
45813;BME280;31519;45.408;10.962;2023-04-07T09:57:15;100681.28;;;20.14;26.66
45813;BME280;31519;45.408;10.962;2023-04-07T09:59:44;100676.75;;;19.11;27.13
45813;BME280;31519;45.408;10.962;2023-04-07T10:02:15;100675.56;;;19.09;26.89
45813;BME280;31519;45.408;10.962;2023-04-07T10:04:43;100672.59;;;19.78;26.32
45813;BME280;31519;45.408;10.962;2023-04-07T10:07:11;100682.16;;;20.21;25.67
45813;BME280;31519;45.408;10.962;2023-04-07T10:09:39;100674.28;;;20.13;25.65
45813;BME280;31519;45.408;10.962;2023-04-07T10:12:07;100672.13;;;19.73;26.84
45813;BME280;31519;45.408;10.962;2023-04-07T10:14:34;100666.38;;;19.32;26.29
45813;BME280;31519;45.408;10.962;2023-04-07T10:17:05;100662.16;;;19.77;26.56
45813;BME280;31519;45.408;10.962;2023-04-07T10:19:34;100659.94;;;20.09;26.26
45813;BME280;31519;45.408;10.962;2023-04-07T10:22:02;100662.94;;;19.55;26.38
45813;BME280;31519;45.408;10.962;2023-04-07T10:27:20;100659.69;;;19.68;26.09
45813;BME280;31519;45.408;10.962;2023-04-07T10:29:49;100654.69;;;18.67;26.69
45813;BME280;31519;45.408;10.962;2023-04-07T10:32:19;100663.81;;;18.28;26.80
45813;BME280;31519;45.408;10.962;2023-04-07T10:34:54;100644.63;;;17.98;27.40
45813;BME280;31519;45.408;10.962;2023-04-07T10:37:24;100651.69;;;18.53;26.90
45813;BME280;31519;45.408;10.962;2023-04-07T10:40:39;100646.50;;;17.78;27.41
45813;BME280;31519;45.408;10.962;2023-04-07T10:45:08;100651.84;;;17.94;28.31
45813;BME280;31519;45.408;10.962;2023-04-07T10:50:19;100649.47;;;18.24;27.79
45813;BME280;31519;45.408;10.962;2023-04-07T10:52:48;100639.63;;;18.85;27.08
45813;BME280;31519;45.408;10.962;2023-04-07T10:55:31;100644.88;;;18.43;27.43
45813;BME280;31519;45.408;10.962;2023-04-07T11:03:28;100639.06;;;19.37;28.14
45813;BME280;31519;45.408;10.962;2023-04-07T11:06:03;100636.06;;;19.00;27.28
45813;BME280;31519;45.408;10.962;2023-04-07T11:08:33;100632.09;;;19.36;27.32
45813;BME280;31519;45.408;10.962;2023-04-07T11:11:01;100631.50;;;19.24;27.41
45813;BME280;31519;45.408;10.962;2023-04-07T11:13:30;100634.50;;;18.26;28.23
45813;BME280;31519;45.408;10.962;2023-04-07T11:16:06;100628.53;;;19.10;27.65
45813;BME280;31519;45.408;10.962;2023-04-07T11:18:36;100624.84;;;19.40;27.01
45813;BME280;31519;45.408;10.962;2023-04-07T11:21:04;100626.28;;;19.80;26.81
45813;BME280;31519;45.408;10.962;2023-04-07T11:23:38;100628.81;;;19.92;25.86
45813;BME280;31519;45.408;10.962;2023-04-07T11:26:08;100623.28;;;20.11;25.62
45813;BME280;31519;45.408;10.962;2023-04-07T11:28:47;100620.94;;;20.36;25.11
45813;BME280;31519;45.408;10.962;2023-04-07T11:31:21;100621.28;;;19.14;26.88
45813;BME280;31519;45.408;10.962;2023-04-07T11:33:55;100624.84;;;19.63;26.72
45813;BME280;31519;45.408;10.962;2023-04-07T11:36:41;100623.97;;;19.56;27.15
45813;BME280;31519;45.408;10.962;2023-04-07T11:39:18;100624.13;;;20.15;26.68
45813;BME280;31519;45.408;10.962;2023-04-07T11:41:48;100617.72;;;19.10;28.46
45813;BME280;31519;45.408;10.962;2023-04-07T11:44:16;100614.69;;;18.92;28.86
45813;BME280;31519;45.408;10.962;2023-04-07T11:46:57;100624.81;;;19.60;28.20
45813;BME280;31519;45.408;10.962;2023-04-07T11:49:26;100607.25;;;19.73;27.95
45813;BME280;31519;45.408;10.962;2023-04-07T11:51:59;100613.13;;;19.52;27.69
45813;BME280;31519;45.408;10.962;2023-04-07T11:54:48;100603.00;;;19.49;28.14
45813;BME280;31519;45.408;10.962;2023-04-07T11:57:25;100610.72;;;20.52;27.03
45813;BME280;31519;45.408;10.962;2023-04-07T12:00:10;100608.97;;;20.37;27.33
45813;BME280;31519;45.408;10.962;2023-04-07T12:02:38;100598.53;;;21.02;25.83
45813;BME280;31519;45.408;10.962;2023-04-07T12:05:07;100603.19;;;20.68;25.53
45813;BME280;31519;45.408;10.962;2023-04-07T12:07:37;100598.72;;;21.16;25.17
45813;BME280;31519;45.408;10.962;2023-04-07T12:13:02;100590.25;;;21.73;24.64
45813;BME280;31519;45.408;10.962;2023-04-07T12:15:30;100593.63;;;22.10;24.39
45813;BME280;31519;45.408;10.962;2023-04-07T12:17:58;100591.75;;;22.18;24.03
45813;BME280;31519;45.408;10.962;2023-04-07T12:20:26;100594.41;;;22.07;24.25
45813;BME280;31519;45.408;10.962;2023-04-07T12:22:54;100588.16;;;21.52;25.34
45813;BME280;31519;45.408;10.962;2023-04-07T12:25:21;100592.50;;;21.63;25.37
45813;BME280;31519;45.408;10.962;2023-04-07T12:27:49;100598.78;;;19.74;26.97
45813;BME280;31519;45.408;10.962;2023-04-07T12:30:17;100595.63;;;19.69;26.78
45813;BME280;31519;45.408;10.962;2023-04-07T12:32:45;100591.31;;;19.90;27.10
45813;BME280;31519;45.408;10.962;2023-04-07T12:35:14;100585.44;;;19.39;27.53
45813;BME280;31519;45.408;10.962;2023-04-07T12:37:42;100589.53;;;19.30;27.64
45813;BME280;31519;45.408;10.962;2023-04-07T12:40:10;100583.03;;;19.12;28.16
45813;BME280;31519;45.408;10.962;2023-04-07T12:42:38;100577.03;;;19.67;27.47
45813;BME280;31519;45.408;10.962;2023-04-07T12:45:06;100587.28;;;18.71;28.63
45813;BME280;31519;45.408;10.962;2023-04-07T12:47:33;100580.31;;;18.50;28.50
45813;BME280;31519;45.408;10.962;2023-04-07T12:50:01;100583.50;;;18.37;29.13
45813;BME280;31519;45.408;10.962;2023-04-07T12:52:29;100569.53;;;18.50;29.44
45813;BME280;31519;45.408;10.962;2023-04-07T12:54:58;100583.00;;;18.31;28.92
45813;BME280;31519;45.408;10.962;2023-04-07T12:57:26;100567.38;;;18.98;28.46
45813;BME280;31519;45.408;10.962;2023-04-07T12:59:54;100566.75;;;19.50;27.70
45813;BME280;31519;45.408;10.962;2023-04-07T13:02:21;100565.13;;;18.81;28.75
45813;BME280;31519;45.408;10.962;2023-04-07T13:04:49;100563.72;;;18.68;28.20
45813;BME280;31519;45.408;10.962;2023-04-07T13:07:17;100565.84;;;18.58;28.65
45813;BME280;31519;45.408;10.962;2023-04-07T13:09:45;100564.94;;;18.93;28.48
45813;BME280;31519;45.408;10.962;2023-04-07T13:12:13;100554.78;;;19.06;28.17
45813;BME280;31519;45.408;10.962;2023-04-07T13:14:41;100562.78;;;18.79;28.62
45813;BME280;31519;45.408;10.962;2023-04-07T13:17:23;100555.13;;;18.62;28.83
45813;BME280;31519;45.408;10.962;2023-04-07T13:19:51;100554.06;;;18.67;29.11